sensor_id;sensor_type;location;lat;lon;timestamp;P1;durP1;ratioP1;P2;durP2;ratioP2
11541;SDS011;5827;49.482;7.716;2022-12-29T00:01:43;4.73;;;2.73;;
11541;SDS011;5827;49.482;7.716;2022-12-29T00:03:45;4.93;;;2.83;;
11541;SDS011;5827;49.482;7.716;2022-12-29T00:05:53;3.33;;;2.63;;
11541;SDS011;5827;49.482;7.716;2022-12-29T00:07:55;3.37;;;3.07;;
11541;SDS011;5827;49.482;7.716;2022-12-29T00:09:57;3.53;;;3.07;;
11541;SDS011;5827;49.482;7.716;2022-12-29T00:11:59;5.10;;;3.40;;
11541;SDS011;5827;49.482;7.716;2022-12-29T00:14:02;3.00;;;2.53;;
11541;SDS011;5827;49.482;7.716;2022-12-29T00:16:22;5.50;;;2.90;;
11541;SDS011;5827;49.482;7.716;2022-12-29T00:18:23;3.40;;;2.73;;
11541;SDS011;5827;49.482;7.716;2022-12-29T00:20:25;5.10;;;2.97;;
11541;SDS011;5827;49.482;7.716;2022-12-29T00:22:44;3.90;;;2.97;;
11541;SDS011;5827;49.482;7.716;2022-12-29T00:25:12;5.80;;;3.17;;
11541;SDS011;5827;49.482;7.716;2022-12-29T00:27:31;3.03;;;2.67;;
11541;SDS011;5827;49.482;7.716;2022-12-29T00:29:52;5.07;;;2.90;;
11541;SDS011;5827;49.482;7.716;2022-12-29T00:32:11;5.67;;;2.73;;
11541;SDS011;5827;49.482;7.716;2022-12-29T00:34:30;3.00;;;2.60;;
11541;SDS011;5827;49.482;7.716;2022-12-29T00:36:49;4.93;;;2.70;;
11541;SDS011;5827;49.482;7.716;2022-12-29T00:38:51;3.97;;;2.40;;
11541;SDS011;5827;49.482;7.716;2022-12-29T00:41:13;7.47;;;3.20;;
11541;SDS011;5827;49.482;7.716;2022-12-29T00:43:32;4.00;;;2.67;;
11541;SDS011;5827;49.482;7.716;2022-12-29T00:45:52;3.17;;;2.40;;
11541;SDS011;5827;49.482;7.716;2022-12-29T00:47:54;4.47;;;2.73;;
11541;SDS011;5827;49.482;7.716;2022-12-29T00:49:55;6.60;;;3.10;;
11541;SDS011;5827;49.482;7.716;2022-12-29T00:51:56;2.80;;;2.60;;
11541;SDS011;5827;49.482;7.716;2022-12-29T00:53:59;3.87;;;2.40;;
11541;SDS011;5827;49.482;7.716;2022-12-29T00:56:00;4.90;;;2.77;;
11541;SDS011;5827;49.482;7.716;2022-12-29T00:58:02;3.67;;;2.13;;
11541;SDS011;5827;49.482;7.716;2022-12-29T01:00:04;2.70;;;2.10;;
11541;SDS011;5827;49.482;7.716;2022-12-29T01:02:08;4.97;;;2.13;;
11541;SDS011;5827;49.482;7.716;2022-12-29T01:04:10;3.37;;;2.07;;
11541;SDS011;5827;49.482;7.716;2022-12-29T01:06:12;2.23;;;2.07;;
11541;SDS011;5827;49.482;7.716;2022-12-29T01:08:13;2.23;;;1.90;;
11541;SDS011;5827;49.482;7.716;2022-12-29T01:10:15;4.00;;;2.00;;
11541;SDS011;5827;49.482;7.716;2022-12-29T01:12:15;2.13;;;1.80;;
11541;SDS011;5827;49.482;7.716;2022-12-29T01:14:39;2.07;;;1.60;;
11541;SDS011;5827;49.482;7.716;2022-12-29T01:16:41;2.70;;;1.80;;
11541;SDS011;5827;49.482;7.716;2022-12-29T01:18:44;3.53;;;1.67;;
11541;SDS011;5827;49.482;7.716;2022-12-29T01:20:45;2.27;;;1.83;;
11541;SDS011;5827;49.482;7.716;2022-12-29T01:22:47;2.53;;;1.50;;
11541;SDS011;5827;49.482;7.716;2022-12-29T01:24:49;2.50;;;1.60;;
11541;SDS011;5827;49.482;7.716;2022-12-29T01:26:50;1.80;;;1.70;;
11541;SDS011;5827;49.482;7.716;2022-12-29T01:28:54;2.77;;;1.70;;
11541;SDS011;5827;49.482;7.716;2022-12-29T01:30:55;3.40;;;1.67;;
11541;SDS011;5827;49.482;7.716;2022-12-29T01:33:00;1.80;;;1.70;;
11541;SDS011;5827;49.482;7.716;2022-12-29T01:35:04;2.90;;;1.70;;
11541;SDS011;5827;49.482;7.716;2022-12-29T01:37:06;1.70;;;1.60;;
11541;SDS011;5827;49.482;7.716;2022-12-29T01:39:07;3.03;;;1.80;;
11541;SDS011;5827;49.482;7.716;2022-12-29T01:41:10;2.80;;;1.83;;
11541;SDS011;5827;49.482;7.716;2022-12-29T01:43:13;1.77;;;1.60;;
11541;SDS011;5827;49.482;7.716;2022-12-29T01:45:16;2.77;;;1.20;;
11541;SDS011;5827;49.482;7.716;2022-12-29T01:47:21;2.37;;;1.60;;
11541;SDS011;5827;49.482;7.716;2022-12-29T01:49:27;2.00;;;1.80;;
11541;SDS011;5827;49.482;7.716;2022-12-29T01:51:31;3.73;;;2.10;;
11541;SDS011;5827;49.482;7.716;2022-12-29T01:53:34;3.40;;;1.83;;
11541;SDS011;5827;49.482;7.716;2022-12-29T01:55:38;3.70;;;2.10;;
11541;SDS011;5827;49.482;7.716;2022-12-29T01:57:45;3.17;;;1.90;;
11541;SDS011;5827;49.482;7.716;2022-12-29T01:59:50;3.97;;;2.17;;
11541;SDS011;5827;49.482;7.716;2022-12-29T02:01:55;4.30;;;2.00;;
11541;SDS011;5827;49.482;7.716;2022-12-29T02:03:57;5.30;;;2.27;;
11541;SDS011;5827;49.482;7.716;2022-12-29T02:06:01;4.13;;;2.17;;
11541;SDS011;5827;49.482;7.716;2022-12-29T02:08:06;2.77;;;1.80;;
11541;SDS011;5827;49.482;7.716;2022-12-29T02:10:09;2.20;;;2.00;;
11541;SDS011;5827;49.482;7.716;2022-12-29T02:12:11;3.07;;;1.60;;
11541;SDS011;5827;49.482;7.716;2022-12-29T02:14:13;2.20;;;2.00;;
11541;SDS011;5827;49.482;7.716;2022-12-29T02:16:19;3.00;;;1.80;;
11541;SDS011;5827;49.482;7.716;2022-12-29T02:18:33;3.70;;;2.10;;
11541;SDS011;5827;49.482;7.716;2022-12-29T02:20:52;4.07;;;1.83;;
11541;SDS011;5827;49.482;7.716;2022-12-29T02:26:05;4.03;;;1.97;;
11541;SDS011;5827;49.482;7.716;2022-12-29T02:28:33;2.93;;;1.70;;
11541;SDS011;5827;49.482;7.716;2022-12-29T02:31:04;1.90;;;1.80;;
11541;SDS011;5827;49.482;7.716;2022-12-29T02:33:20;4.10;;;2.13;;
11541;SDS011;5827;49.482;7.716;2022-12-29T02:35:31;3.90;;;1.90;;
11541;SDS011;5827;49.482;7.716;2022-12-29T02:37:40;2.37;;;1.90;;
11541;SDS011;5827;49.482;7.716;2022-12-29T02:39:50;3.03;;;1.80;;
11541;SDS011;5827;49.482;7.716;2022-12-29T02:42:00;3.10;;;1.63;;
11541;SDS011;5827;49.482;7.716;2022-12-29T02:44:08;2.80;;;1.93;;
11541;SDS011;5827;49.482;7.716;2022-12-29T02:46:16;2.13;;;1.80;;
11541;SDS011;5827;49.482;7.716;2022-12-29T02:48:24;2.57;;;1.90;;
11541;SDS011;5827;49.482;7.716;2022-12-29T02:50:32;2.90;;;2.10;;
11541;SDS011;5827;49.482;7.716;2022-12-29T02:52:38;2.40;;;1.57;;
11541;SDS011;5827;49.482;7.716;2022-12-29T02:54:47;3.17;;;1.93;;
11541;SDS011;5827;49.482;7.716;2022-12-29T02:56:48;3.27;;;1.90;;
11541;SDS011;5827;49.482;7.716;2022-12-29T02:58:49;3.13;;;1.90;;
11541;SDS011;5827;49.482;7.716;2022-12-29T03:00:54;3.30;;;2.03;;
11541;SDS011;5827;49.482;7.716;2022-12-29T03:03:13;2.83;;;1.90;;
11541;SDS011;5827;49.482;7.716;2022-12-29T03:05:34;2.83;;;2.23;;
11541;SDS011;5827;49.482;7.716;2022-12-29T03:07:50;2.17;;;1.90;;
11541;SDS011;5827;49.482;7.716;2022-12-29T03:10:01;3.70;;;2.30;;
11541;SDS011;5827;49.482;7.716;2022-12-29T03:12:14;4.53;;;1.90;;
11541;SDS011;5827;49.482;7.716;2022-12-29T03:14:26;3.37;;;1.90;;
11541;SDS011;5827;49.482;7.716;2022-12-29T03:16:49;4.13;;;1.90;;
11541;SDS011;5827;49.482;7.716;2022-12-29T03:18:57;2.20;;;1.97;;
11541;SDS011;5827;49.482;7.716;2022-12-29T03:21:05;2.30;;;2.10;;
11541;SDS011;5827;49.482;7.716;2022-12-29T03:23:12;3.63;;;1.53;;
11541;SDS011;5827;49.482;7.716;2022-12-29T03:25:15;3.00;;;2.00;;
11541;SDS011;5827;49.482;7.716;2022-12-29T03:27:21;2.60;;;2.20;;
11541;SDS011;5827;49.482;7.716;2022-12-29T03:29:26;3.73;;;2.20;;
11541;SDS011;5827;49.482;7.716;2022-12-29T03:31:30;2.47;;;1.90;;
11541;SDS011;5827;49.482;7.716;2022-12-29T03:33:32;3.67;;;2.07;;
11541;SDS011;5827;49.482;7.716;2022-12-29T03:35:37;3.33;;;2.03;;
11541;SDS011;5827;49.482;7.716;2022-12-29T03:37:43;3.90;;;2.00;;
11541;SDS011;5827;49.482;7.716;2022-12-29T03:39:50;2.93;;;2.30;;
11541;SDS011;5827;49.482;7.716;2022-12-29T03:41:54;2.87;;;1.90;;
11541;SDS011;5827;49.482;7.716;2022-12-29T03:44:02;3.83;;;2.20;;
11541;SDS011;5827;49.482;7.716;2022-12-29T03:46:03;4.20;;;1.90;;
11541;SDS011;5827;49.482;7.716;2022-12-29T03:48:05;2.97;;;1.53;;
11541;SDS011;5827;49.482;7.716;2022-12-29T03:50:07;3.80;;;1.97;;
11541;SDS011;5827;49.482;7.716;2022-12-29T03:52:11;2.50;;;2.00;;
11541;SDS011;5827;49.482;7.716;2022-12-29T03:54:12;1.70;;;1.60;;
11541;SDS011;5827;49.482;7.716;2022-12-29T03:56:14;5.70;;;2.30;;
11541;SDS011;5827;49.482;7.716;2022-12-29T03:58:15;4.27;;;1.90;;
11541;SDS011;5827;49.482;7.716;2022-12-29T04:00:17;3.23;;;1.87;;
11541;SDS011;5827;49.482;7.716;2022-12-29T04:02:19;2.43;;;1.60;;
11541;SDS011;5827;49.482;7.716;2022-12-29T04:04:20;1.93;;;1.47;;
11541;SDS011;5827;49.482;7.716;2022-12-29T04:06:22;2.50;;;2.00;;
11541;SDS011;5827;49.482;7.716;2022-12-29T04:08:25;3.03;;;2.03;;
11541;SDS011;5827;49.482;7.716;2022-12-29T04:10:27;3.53;;;2.03;;
11541;SDS011;5827;49.482;7.716;2022-12-29T04:12:28;2.27;;;1.77;;
11541;SDS011;5827;49.482;7.716;2022-12-29T04:14:30;3.17;;;1.80;;
11541;SDS011;5827;49.482;7.716;2022-12-29T04:16:31;2.30;;;2.10;;
11541;SDS011;5827;49.482;7.716;2022-12-29T04:18:35;2.07;;;1.80;;
11541;SDS011;5827;49.482;7.716;2022-12-29T04:20:37;3.70;;;1.70;;
11541;SDS011;5827;49.482;7.716;2022-12-29T04:22:59;4.60;;;1.77;;
11541;SDS011;5827;49.482;7.716;2022-12-29T04:25:02;2.83;;;1.60;;
11541;SDS011;5827;49.482;7.716;2022-12-29T04:27:04;6.33;;;2.00;;
11541;SDS011;5827;49.482;7.716;2022-12-29T04:29:06;3.23;;;1.67;;
11541;SDS011;5827;49.482;7.716;2022-12-29T04:31:07;1.50;;;1.40;;
11541;SDS011;5827;49.482;7.716;2022-12-29T04:33:09;2.53;;;1.70;;
11541;SDS011;5827;49.482;7.716;2022-12-29T04:35:10;2.63;;;1.80;;
11541;SDS011;5827;49.482;7.716;2022-12-29T04:37:12;3.40;;;1.90;;
11541;SDS011;5827;49.482;7.716;2022-12-29T04:39:13;2.27;;;1.60;;
11541;SDS011;5827;49.482;7.716;2022-12-29T04:41:16;2.00;;;1.80;;
11541;SDS011;5827;49.482;7.716;2022-12-29T04:43:18;2.93;;;1.67;;
11541;SDS011;5827;49.482;7.716;2022-12-29T04:45:21;2.60;;;1.57;;
11541;SDS011;5827;49.482;7.716;2022-12-29T04:47:23;5.40;;;2.10;;
11541;SDS011;5827;49.482;7.716;2022-12-29T04:49:24;4.47;;;2.03;;
11541;SDS011;5827;49.482;7.716;2022-12-29T04:51:26;2.00;;;1.80;;
11541;SDS011;5827;49.482;7.716;2022-12-29T04:53:27;2.00;;;1.70;;
11541;SDS011;5827;49.482;7.716;2022-12-29T04:55:29;4.40;;;1.70;;
11541;SDS011;5827;49.482;7.716;2022-12-29T04:57:32;4.40;;;1.70;;
11541;SDS011;5827;49.482;7.716;2022-12-29T04:59:34;3.97;;;1.90;;
11541;SDS011;5827;49.482;7.716;2022-12-29T05:01:35;3.10;;;1.80;;
11541;SDS011;5827;49.482;7.716;2022-12-29T05:03:37;2.23;;;1.47;;
11541;SDS011;5827;49.482;7.716;2022-12-29T05:05:38;2.00;;;1.70;;
11541;SDS011;5827;49.482;7.716;2022-12-29T05:07:40;4.00;;;1.90;;
11541;SDS011;5827;49.482;7.716;2022-12-29T05:09:42;2.00;;;1.80;;
11541;SDS011;5827;49.482;7.716;2022-12-29T05:11:43;2.20;;;1.63;;
11541;SDS011;5827;49.482;7.716;2022-12-29T05:13:46;4.83;;;2.10;;
11541;SDS011;5827;49.482;7.716;2022-12-29T05:15:49;4.10;;;1.70;;
11541;SDS011;5827;49.482;7.716;2022-12-29T05:17:50;2.73;;;1.97;;
11541;SDS011;5827;49.482;7.716;2022-12-29T05:19:52;2.93;;;1.90;;
11541;SDS011;5827;49.482;7.716;2022-12-29T05:21:54;3.50;;;1.70;;
11541;SDS011;5827;49.482;7.716;2022-12-29T05:23:55;2.27;;;1.73;;
11541;SDS011;5827;49.482;7.716;2022-12-29T05:25:57;2.13;;;1.90;;
11541;SDS011;5827;49.482;7.716;2022-12-29T05:27:58;3.17;;;2.07;;
11541;SDS011;5827;49.482;7.716;2022-12-29T05:30:01;3.77;;;1.67;;
11541;SDS011;5827;49.482;7.716;2022-12-29T05:32:03;5.30;;;1.87;;
11541;SDS011;5827;49.482;7.716;2022-12-29T05:34:05;4.20;;;1.53;;
11541;SDS011;5827;49.482;7.716;2022-12-29T05:36:07;3.20;;;1.90;;
11541;SDS011;5827;49.482;7.716;2022-12-29T05:38:10;3.20;;;1.80;;
11541;SDS011;5827;49.482;7.716;2022-12-29T05:40:11;5.00;;;2.00;;
11541;SDS011;5827;49.482;7.716;2022-12-29T05:42:13;3.37;;;2.00;;
11541;SDS011;5827;49.482;7.716;2022-12-29T05:44:15;3.10;;;1.80;;
11541;SDS011;5827;49.482;7.716;2022-12-29T05:46:18;2.90;;;2.07;;
11541;SDS011;5827;49.482;7.716;2022-12-29T05:48:19;2.77;;;2.10;;
11541;SDS011;5827;49.482;7.716;2022-12-29T05:50:21;4.67;;;2.30;;
11541;SDS011;5827;49.482;7.716;2022-12-29T05:52:22;3.60;;;2.07;;
11541;SDS011;5827;49.482;7.716;2022-12-29T05:54:24;2.77;;;1.93;;
11541;SDS011;5827;49.482;7.716;2022-12-29T05:56:25;4.90;;;2.20;;
11541;SDS011;5827;49.482;7.716;2022-12-29T05:58:27;4.43;;;1.90;;
11541;SDS011;5827;49.482;7.716;2022-12-29T06:00:28;3.53;;;2.00;;
11541;SDS011;5827;49.482;7.716;2022-12-29T06:02:31;4.40;;;2.30;;
11541;SDS011;5827;49.482;7.716;2022-12-29T06:04:32;3.60;;;2.43;;
11541;SDS011;5827;49.482;7.716;2022-12-29T06:06:34;2.70;;;2.43;;
11541;SDS011;5827;49.482;7.716;2022-12-29T06:08:36;5.03;;;2.60;;
11541;SDS011;5827;49.482;7.716;2022-12-29T06:10:37;3.63;;;2.60;;
11541;SDS011;5827;49.482;7.716;2022-12-29T06:12:39;3.77;;;2.00;;
11541;SDS011;5827;49.482;7.716;2022-12-29T06:14:40;6.33;;;2.60;;
11541;SDS011;5827;49.482;7.716;2022-12-29T06:16:42;3.80;;;2.23;;
11541;SDS011;5827;49.482;7.716;2022-12-29T06:18:44;3.30;;;2.13;;
11541;SDS011;5827;49.482;7.716;2022-12-29T06:20:46;3.13;;;2.10;;
11541;SDS011;5827;49.482;7.716;2022-12-29T06:22:48;3.87;;;2.57;;
11541;SDS011;5827;49.482;7.716;2022-12-29T06:24:49;6.23;;;2.50;;
11541;SDS011;5827;49.482;7.716;2022-12-29T06:26:51;4.30;;;2.27;;
11541;SDS011;5827;49.482;7.716;2022-12-29T06:28:52;3.30;;;2.47;;
11541;SDS011;5827;49.482;7.716;2022-12-29T06:30:54;4.30;;;2.63;;
11541;SDS011;5827;49.482;7.716;2022-12-29T06:32:55;3.93;;;2.60;;
11541;SDS011;5827;49.482;7.716;2022-12-29T06:34:58;4.57;;;2.50;;
11541;SDS011;5827;49.482;7.716;2022-12-29T06:37:00;4.27;;;2.63;;
11541;SDS011;5827;49.482;7.716;2022-12-29T06:39:02;3.40;;;2.23;;
11541;SDS011;5827;49.482;7.716;2022-12-29T06:41:03;3.43;;;2.23;;
11541;SDS011;5827;49.482;7.716;2022-12-29T06:43:05;2.20;;;2.00;;
11541;SDS011;5827;49.482;7.716;2022-12-29T06:45:07;4.53;;;2.30;;
11541;SDS011;5827;49.482;7.716;2022-12-29T06:47:09;5.50;;;2.40;;
11541;SDS011;5827;49.482;7.716;2022-12-29T06:49:14;4.50;;;2.20;;
11541;SDS011;5827;49.482;7.716;2022-12-29T06:51:17;3.10;;;2.47;;
11541;SDS011;5827;49.482;7.716;2022-12-29T06:53:18;3.77;;;2.20;;
11541;SDS011;5827;49.482;7.716;2022-12-29T06:55:20;3.87;;;2.47;;
11541;SDS011;5827;49.482;7.716;2022-12-29T06:57:22;3.73;;;2.20;;
11541;SDS011;5827;49.482;7.716;2022-12-29T06:59:24;4.80;;;2.30;;
11541;SDS011;5827;49.482;7.716;2022-12-29T07:01:26;3.80;;;2.47;;
11541;SDS011;5827;49.482;7.716;2022-12-29T07:03:28;2.50;;;2.10;;
11541;SDS011;5827;49.482;7.716;2022-12-29T07:05:29;2.73;;;2.20;;
11541;SDS011;5827;49.482;7.716;2022-12-29T07:07:33;4.17;;;2.33;;
11541;SDS011;5827;49.482;7.716;2022-12-29T07:09:35;3.60;;;2.17;;
11541;SDS011;5827;49.482;7.716;2022-12-29T07:11:37;3.97;;;2.67;;
11541;SDS011;5827;49.482;7.716;2022-12-29T07:13:38;5.17;;;2.67;;
11541;SDS011;5827;49.482;7.716;2022-12-29T07:15:40;4.20;;;2.33;;
11541;SDS011;5827;49.482;7.716;2022-12-29T07:17:42;2.60;;;2.33;;
11541;SDS011;5827;49.482;7.716;2022-12-29T07:19:44;5.17;;;2.50;;
11541;SDS011;5827;49.482;7.716;2022-12-29T07:21:48;4.40;;;2.97;;
11541;SDS011;5827;49.482;7.716;2022-12-29T07:23:51;2.07;;;1.90;;
11541;SDS011;5827;49.482;7.716;2022-12-29T07:25:58;2.90;;;2.60;;
11541;SDS011;5827;49.482;7.716;2022-12-29T07:28:00;2.60;;;2.40;;
11541;SDS011;5827;49.482;7.716;2022-12-29T07:30:02;3.33;;;2.83;;
11541;SDS011;5827;49.482;7.716;2022-12-29T07:32:04;3.70;;;2.80;;
11541;SDS011;5827;49.482;7.716;2022-12-29T07:34:07;4.20;;;2.87;;
11541;SDS011;5827;49.482;7.716;2022-12-29T07:36:09;3.70;;;2.60;;
11541;SDS011;5827;49.482;7.716;2022-12-29T07:38:11;8.53;;;3.90;;
11541;SDS011;5827;49.482;7.716;2022-12-29T07:40:13;5.93;;;3.30;;
11541;SDS011;5827;49.482;7.716;2022-12-29T07:42:15;6.83;;;3.27;;
11541;SDS011;5827;49.482;7.716;2022-12-29T07:44:17;4.20;;;2.70;;
11541;SDS011;5827;49.482;7.716;2022-12-29T07:46:18;3.17;;;2.60;;
11541;SDS011;5827;49.482;7.716;2022-12-29T07:48:20;4.23;;;2.80;;
11541;SDS011;5827;49.482;7.716;2022-12-29T07:50:21;6.47;;;3.03;;
11541;SDS011;5827;49.482;7.716;2022-12-29T07:52:23;4.50;;;2.83;;
11541;SDS011;5827;49.482;7.716;2022-12-29T07:54:24;3.83;;;2.60;;
11541;SDS011;5827;49.482;7.716;2022-12-29T07:56:27;2.90;;;2.60;;
11541;SDS011;5827;49.482;7.716;2022-12-29T07:58:29;4.57;;;2.73;;
11541;SDS011;5827;49.482;7.716;2022-12-29T08:00:31;3.07;;;2.73;;
11541;SDS011;5827;49.482;7.716;2022-12-29T08:02:32;4.20;;;2.83;;
11541;SDS011;5827;49.482;7.716;2022-12-29T08:04:34;5.00;;;3.27;;
11541;SDS011;5827;49.482;7.716;2022-12-29T08:06:35;4.63;;;2.90;;
11541;SDS011;5827;49.482;7.716;2022-12-29T08:08:37;4.07;;;3.00;;
11541;SDS011;5827;49.482;7.716;2022-12-29T08:10:39;4.70;;;3.13;;
11541;SDS011;5827;49.482;7.716;2022-12-29T08:12:42;4.27;;;3.40;;
11541;SDS011;5827;49.482;7.716;2022-12-29T08:14:44;4.93;;;3.90;;
11541;SDS011;5827;49.482;7.716;2022-12-29T08:16:45;4.00;;;3.30;;
11541;SDS011;5827;49.482;7.716;2022-12-29T08:18:47;3.50;;;2.80;;
11541;SDS011;5827;49.482;7.716;2022-12-29T08:20:48;4.57;;;2.97;;
11541;SDS011;5827;49.482;7.716;2022-12-29T08:22:50;3.47;;;2.80;;
11541;SDS011;5827;49.482;7.716;2022-12-29T08:24:52;6.00;;;3.40;;
11541;SDS011;5827;49.482;7.716;2022-12-29T08:26:53;5.77;;;3.00;;
11541;SDS011;5827;49.482;7.716;2022-12-29T08:28:56;4.77;;;3.00;;
11541;SDS011;5827;49.482;7.716;2022-12-29T08:30:58;6.77;;;3.30;;
11541;SDS011;5827;49.482;7.716;2022-12-29T08:33:00;4.20;;;3.20;;
11541;SDS011;5827;49.482;7.716;2022-12-29T08:35:02;4.17;;;3.10;;
11541;SDS011;5827;49.482;7.716;2022-12-29T08:37:03;7.60;;;3.43;;
11541;SDS011;5827;49.482;7.716;2022-12-29T08:39:05;4.20;;;3.50;;
11541;SDS011;5827;49.482;7.716;2022-12-29T08:41:07;3.57;;;3.20;;
11541;SDS011;5827;49.482;7.716;2022-12-29T08:43:10;3.90;;;3.43;;
11541;SDS011;5827;49.482;7.716;2022-12-29T08:45:12;5.27;;;3.63;;
11541;SDS011;5827;49.482;7.716;2022-12-29T08:47:14;5.43;;;3.40;;
11541;SDS011;5827;49.482;7.716;2022-12-29T08:49:16;5.07;;;3.47;;
11541;SDS011;5827;49.482;7.716;2022-12-29T08:51:17;3.67;;;3.37;;
11541;SDS011;5827;49.482;7.716;2022-12-29T08:53:19;4.10;;;3.23;;
11541;SDS011;5827;49.482;7.716;2022-12-29T08:55:21;4.10;;;3.17;;
11541;SDS011;5827;49.482;7.716;2022-12-29T08:57:24;6.43;;;3.60;;
11541;SDS011;5827;49.482;7.716;2022-12-29T08:59:26;5.63;;;3.97;;
11541;SDS011;5827;49.482;7.716;2022-12-29T09:01:29;4.07;;;3.30;;
11541;SDS011;5827;49.482;7.716;2022-12-29T09:03:30;4.40;;;3.80;;
11541;SDS011;5827;49.482;7.716;2022-12-29T09:05:32;4.50;;;3.60;;
11541;SDS011;5827;49.482;7.716;2022-12-29T09:07:33;3.27;;;2.97;;
11541;SDS011;5827;49.482;7.716;2022-12-29T09:09:35;6.07;;;3.17;;
11541;SDS011;5827;49.482;7.716;2022-12-29T09:11:37;5.03;;;3.17;;
11541;SDS011;5827;49.482;7.716;2022-12-29T09:13:38;3.80;;;3.03;;
11541;SDS011;5827;49.482;7.716;2022-12-29T09:15:40;4.77;;;3.40;;
11541;SDS011;5827;49.482;7.716;2022-12-29T09:17:44;5.30;;;3.30;;
11541;SDS011;5827;49.482;7.716;2022-12-29T09:19:46;4.03;;;3.10;;
11541;SDS011;5827;49.482;7.716;2022-12-29T09:21:47;3.40;;;2.97;;
11541;SDS011;5827;49.482;7.716;2022-12-29T09:23:49;3.63;;;3.17;;
11541;SDS011;5827;49.482;7.716;2022-12-29T09:25:50;4.07;;;3.07;;
11541;SDS011;5827;49.482;7.716;2022-12-29T09:27:52;4.87;;;3.30;;
11541;SDS011;5827;49.482;7.716;2022-12-29T09:29:54;3.10;;;2.80;;
11541;SDS011;5827;49.482;7.716;2022-12-29T09:31:55;3.63;;;3.23;;
11541;SDS011;5827;49.482;7.716;2022-12-29T09:33:58;3.40;;;3.10;;
11541;SDS011;5827;49.482;7.716;2022-12-29T09:36:00;6.63;;;3.00;;
11541;SDS011;5827;49.482;7.716;2022-12-29T09:38:02;4.90;;;3.03;;
11541;SDS011;5827;49.482;7.716;2022-12-29T09:40:04;4.17;;;3.10;;
11541;SDS011;5827;49.482;7.716;2022-12-29T09:42:08;5.43;;;3.17;;
11541;SDS011;5827;49.482;7.716;2022-12-29T09:44:19;5.57;;;2.90;;
11541;SDS011;5827;49.482;7.716;2022-12-29T09:46:26;4.03;;;3.00;;
11541;SDS011;5827;49.482;7.716;2022-12-29T09:48:29;4.43;;;2.90;;
11541;SDS011;5827;49.482;7.716;2022-12-29T09:50:36;4.13;;;2.50;;
11541;SDS011;5827;49.482;7.716;2022-12-29T09:52:41;6.33;;;3.20;;
11541;SDS011;5827;49.482;7.716;2022-12-29T09:54:50;4.00;;;2.90;;
11541;SDS011;5827;49.482;7.716;2022-12-29T09:56:56;2.90;;;2.40;;
11541;SDS011;5827;49.482;7.716;2022-12-29T09:58:58;3.83;;;2.83;;
11541;SDS011;5827;49.482;7.716;2022-12-29T10:01:03;4.70;;;2.83;;
11541;SDS011;5827;49.482;7.716;2022-12-29T10:03:09;3.30;;;2.97;;
11541;SDS011;5827;49.482;7.716;2022-12-29T10:05:20;4.87;;;3.07;;
11541;SDS011;5827;49.482;7.716;2022-12-29T10:07:36;4.57;;;2.80;;
11541;SDS011;5827;49.482;7.716;2022-12-29T10:09:43;4.37;;;2.80;;
11541;SDS011;5827;49.482;7.716;2022-12-29T10:11:57;5.43;;;3.40;;
11541;SDS011;5827;49.482;7.716;2022-12-29T10:14:13;3.73;;;3.33;;
11541;SDS011;5827;49.482;7.716;2022-12-29T10:16:29;4.57;;;2.90;;
11541;SDS011;5827;49.482;7.716;2022-12-29T10:18:43;3.30;;;3.00;;
11541;SDS011;5827;49.482;7.716;2022-12-29T10:20:57;3.77;;;3.10;;
11541;SDS011;5827;49.482;7.716;2022-12-29T10:23:19;3.73;;;2.93;;
11541;SDS011;5827;49.482;7.716;2022-12-29T10:25:28;3.73;;;2.70;;
11541;SDS011;5827;49.482;7.716;2022-12-29T10:27:35;3.53;;;2.70;;
11541;SDS011;5827;49.482;7.716;2022-12-29T10:29:37;4.57;;;2.60;;
11541;SDS011;5827;49.482;7.716;2022-12-29T10:31:43;5.60;;;2.87;;
11541;SDS011;5827;49.482;7.716;2022-12-29T10:33:49;7.23;;;3.70;;
11541;SDS011;5827;49.482;7.716;2022-12-29T10:35:52;6.40;;;3.50;;
11541;SDS011;5827;49.482;7.716;2022-12-29T10:37:55;5.93;;;3.57;;
11541;SDS011;5827;49.482;7.716;2022-12-29T10:40:03;5.07;;;2.90;;
11541;SDS011;5827;49.482;7.716;2022-12-29T10:42:19;4.97;;;3.53;;
11541;SDS011;5827;49.482;7.716;2022-12-29T10:44:27;2.83;;;2.57;;
11541;SDS011;5827;49.482;7.716;2022-12-29T10:46:34;3.27;;;3.00;;
11541;SDS011;5827;49.482;7.716;2022-12-29T10:48:37;4.50;;;2.87;;
11541;SDS011;5827;49.482;7.716;2022-12-29T10:50:39;2.67;;;2.17;;
11541;SDS011;5827;49.482;7.716;2022-12-29T10:52:42;2.57;;;2.27;;
11541;SDS011;5827;49.482;7.716;2022-12-29T10:54:46;3.10;;;1.80;;
11541;SDS011;5827;49.482;7.716;2022-12-29T10:56:53;2.67;;;1.70;;
11541;SDS011;5827;49.482;7.716;2022-12-29T10:58:59;5.40;;;2.30;;
11541;SDS011;5827;49.482;7.716;2022-12-29T11:01:18;3.03;;;1.70;;
11541;SDS011;5827;49.482;7.716;2022-12-29T11:05:49;3.23;;;1.60;;
11541;SDS011;5827;49.482;7.716;2022-12-29T11:07:58;2.93;;;1.90;;
11541;SDS011;5827;49.482;7.716;2022-12-29T11:10:16;1.97;;;1.50;;
11541;SDS011;5827;49.482;7.716;2022-12-29T11:12:22;2.97;;;2.03;;
11541;SDS011;5827;49.482;7.716;2022-12-29T11:14:26;2.80;;;1.77;;
11541;SDS011;5827;49.482;7.716;2022-12-29T11:16:30;2.30;;;1.70;;
11541;SDS011;5827;49.482;7.716;2022-12-29T11:18:35;3.43;;;1.60;;
11541;SDS011;5827;49.482;7.716;2022-12-29T11:20:38;3.70;;;1.90;;
11541;SDS011;5827;49.482;7.716;2022-12-29T11:22:43;2.47;;;1.80;;
11541;SDS011;5827;49.482;7.716;2022-12-29T11:24:46;3.90;;;1.97;;
11541;SDS011;5827;49.482;7.716;2022-12-29T11:26:49;2.43;;;2.13;;
11541;SDS011;5827;49.482;7.716;2022-12-29T11:29:20;4.37;;;2.17;;
11541;SDS011;5827;49.482;7.716;2022-12-29T11:31:24;4.03;;;1.90;;
11541;SDS011;5827;49.482;7.716;2022-12-29T11:33:27;2.23;;;2.00;;
11541;SDS011;5827;49.482;7.716;2022-12-29T11:35:29;2.87;;;2.03;;
11541;SDS011;5827;49.482;7.716;2022-12-29T11:37:37;3.73;;;2.10;;
11541;SDS011;5827;49.482;7.716;2022-12-29T11:39:40;3.07;;;1.77;;
11541;SDS011;5827;49.482;7.716;2022-12-29T11:41:51;3.13;;;1.93;;
11541;SDS011;5827;49.482;7.716;2022-12-29T11:43:54;2.47;;;2.03;;
11541;SDS011;5827;49.482;7.716;2022-12-29T11:45:59;4.87;;;2.00;;
11541;SDS011;5827;49.482;7.716;2022-12-29T11:48:06;4.23;;;2.10;;
11541;SDS011;5827;49.482;7.716;2022-12-29T11:50:15;2.90;;;2.00;;
11541;SDS011;5827;49.482;7.716;2022-12-29T11:52:21;4.90;;;2.07;;
11541;SDS011;5827;49.482;7.716;2022-12-29T11:54:25;4.17;;;2.10;;
11541;SDS011;5827;49.482;7.716;2022-12-29T11:56:33;2.10;;;1.90;;
11541;SDS011;5827;49.482;7.716;2022-12-29T11:58:37;5.00;;;2.23;;
11541;SDS011;5827;49.482;7.716;2022-12-29T12:00:39;6.20;;;2.27;;
11541;SDS011;5827;49.482;7.716;2022-12-29T12:02:45;5.93;;;1.90;;
11541;SDS011;5827;49.482;7.716;2022-12-29T12:04:54;2.27;;;1.70;;
11541;SDS011;5827;49.482;7.716;2022-12-29T12:07:02;4.17;;;2.00;;
11541;SDS011;5827;49.482;7.716;2022-12-29T12:09:14;4.63;;;2.20;;
11541;SDS011;5827;49.482;7.716;2022-12-29T12:11:23;5.57;;;2.07;;
11541;SDS011;5827;49.482;7.716;2022-12-29T12:13:33;3.13;;;1.97;;
11541;SDS011;5827;49.482;7.716;2022-12-29T12:15:39;3.10;;;2.47;;
11541;SDS011;5827;49.482;7.716;2022-12-29T12:17:47;4.60;;;2.33;;
11541;SDS011;5827;49.482;7.716;2022-12-29T12:19:53;5.40;;;1.87;;
11541;SDS011;5827;49.482;7.716;2022-12-29T12:22:01;3.40;;;2.00;;
11541;SDS011;5827;49.482;7.716;2022-12-29T12:24:20;3.43;;;2.00;;
11541;SDS011;5827;49.482;7.716;2022-12-29T12:26:32;3.67;;;1.57;;
11541;SDS011;5827;49.482;7.716;2022-12-29T12:28:37;2.90;;;1.37;;
11541;SDS011;5827;49.482;7.716;2022-12-29T12:30:47;4.73;;;1.70;;
11541;SDS011;5827;49.482;7.716;2022-12-29T12:32:56;2.23;;;1.40;;
11541;SDS011;5827;49.482;7.716;2022-12-29T12:35:02;2.47;;;1.67;;
11541;SDS011;5827;49.482;7.716;2022-12-29T12:37:14;3.17;;;1.67;;
11541;SDS011;5827;49.482;7.716;2022-12-29T12:39:30;2.33;;;2.00;;
11541;SDS011;5827;49.482;7.716;2022-12-29T12:41:42;4.97;;;1.73;;
11541;SDS011;5827;49.482;7.716;2022-12-29T12:43:49;2.93;;;1.50;;
11541;SDS011;5827;49.482;7.716;2022-12-29T12:45:55;2.07;;;1.37;;
11541;SDS011;5827;49.482;7.716;2022-12-29T12:48:12;5.63;;;1.80;;
11541;SDS011;5827;49.482;7.716;2022-12-29T12:50:40;3.23;;;1.33;;